createdAt,value
2023-01-26T00:01:25.863Z,100313.66
2023-01-26T00:03:52.478Z,100310.97
2023-01-26T00:06:20.984Z,100311.13
2023-01-26T00:08:54.117Z,100306.75
2023-01-26T00:11:26.602Z,100311.34
2023-01-26T00:13:54.236Z,100300.97
2023-01-26T00:16:21.183Z,100292.88
2023-01-26T00:18:47.924Z,100301.50
2023-01-26T00:21:22.459Z,100306.84
2023-01-26T00:23:50.179Z,100296.38
2023-01-26T00:26:19.635Z,100295.25
2023-01-26T00:28:46.967Z,100289.78
2023-01-26T00:31:15.047Z,100297.09
2023-01-26T00:33:42.055Z,100300.97
2023-01-26T00:36:09.345Z,100298.94
2023-01-26T00:38:35.926Z,100302.84
2023-01-26T00:41:02.821Z,100295.25
2023-01-26T00:43:29.368Z,100295.44
2023-01-26T00:45:56.036Z,100288.66
2023-01-26T00:48:24.584Z,100297.56
2023-01-26T00:50:52.525Z,100298.09
2023-01-26T00:53:19.723Z,100293.16
2023-01-26T00:55:46.251Z,100291.22
2023-01-26T00:58:12.818Z,100296.28
2023-01-26T01:00:39.451Z,100301.97
2023-01-26T01:03:06.818Z,100296.19
2023-01-26T01:05:34.696Z,100289.78
2023-01-26T01:08:02.266Z,100285.28
2023-01-26T01:10:29.379Z,100286.63
2023-01-26T01:12:57.155Z,100290.69
2023-01-26T01:15:24.489Z,100287.09
2023-01-26T01:17:51.332Z,100290.41
2023-01-26T01:20:18.281Z,100282.16
2023-01-26T01:22:44.807Z,100289.41
2023-01-26T01:25:11.437Z,100281.97
2023-01-26T01:27:37.966Z,100277.91
2023-01-26T01:30:05.026Z,100285.28
2023-01-26T01:32:31.612Z,100273.06
2023-01-26T01:34:58.232Z,100268.25
2023-01-26T01:37:24.837Z,100274.22
2023-01-26T01:39:51.360Z,100268.91
2023-01-26T01:42:18.016Z,100268.72
2023-01-26T01:45:06.796Z,100266.66
2023-01-26T01:47:33.432Z,100268.91
2023-01-26T01:49:59.973Z,100259.44
2023-01-26T01:52:31.445Z,100262.22
2023-01-26T01:55:10.921Z,100259.19
2023-01-26T01:57:44.563Z,100255.81
2023-01-26T02:00:14.246Z,100246.53
2023-01-26T02:02:44.125Z,100245.06
2023-01-26T02:05:22.311Z,100248.94
2023-01-26T02:07:50.578Z,100254.72
2023-01-26T02:10:20.823Z,100250.22
2023-01-26T02:12:53.678Z,100251.94
2023-01-26T02:15:20.190Z,100244.69
2023-01-26T02:17:46.791Z,100247.63
2023-01-26T02:20:25.160Z,100240.09
2023-01-26T02:23:18.159Z,100239.25
2023-01-26T02:25:51.184Z,100239.38
2023-01-26T02:28:19.048Z,100235.53
2023-01-26T02:30:46.332Z,100230.50
2023-01-26T02:33:23.151Z,100231.50
2023-01-26T02:35:49.709Z,100224.44
2023-01-26T02:38:17.970Z,100228.03
2023-01-26T02:40:54.252Z,100237.38
2023-01-26T02:43:23.814Z,100234.06
2023-01-26T02:45:50.383Z,100229.53
2023-01-26T02:48:16.964Z,100230.69
2023-01-26T02:50:43.438Z,100229.66
2023-01-26T02:53:09.921Z,100232.63
2023-01-26T02:55:36.671Z,100230.78
2023-01-26T02:58:04.767Z,100231.41
2023-01-26T03:00:34.117Z,100223.44
2023-01-26T03:03:02.198Z,100221.22
2023-01-26T03:05:28.893Z,100217.34
2023-01-26T03:07:55.793Z,100218.47
2023-01-26T03:10:22.359Z,100222.03
2023-01-26T03:12:49.049Z,100217.56
2023-01-26T03:15:15.660Z,100219.75
2023-01-26T03:17:42.204Z,100203.44
2023-01-26T03:20:09.990Z,100202.59
2023-01-26T03:22:36.701Z,100206.97
2023-01-26T03:25:03.402Z,100206.22
2023-01-26T03:27:42.103Z,100206.13
2023-01-26T03:30:10.400Z,100199.81
2023-01-26T03:32:37.176Z,100202.00
2023-01-26T03:35:04.032Z,100201.59
2023-01-26T03:37:30.615Z,100195.09
2023-01-26T03:39:57.130Z,100189.66
2023-01-26T03:42:23.660Z,100206.91
2023-01-26T03:44:50.288Z,100191.91
2023-01-26T03:47:16.826Z,100192.09
2023-01-26T03:49:43.375Z,100196.03
2023-01-26T03:52:10.052Z,100209.16
2023-01-26T03:54:36.591Z,100213.06
2023-01-26T03:57:03.289Z,100202.97
2023-01-26T03:59:29.867Z,100207.09
2023-01-26T04:01:56.477Z,100209.56
2023-01-26T04:04:23.129Z,100204.44
2023-01-26T04:06:50.485Z,100207.50
2023-01-26T04:09:16.971Z,100212.66
2023-01-26T04:11:43.513Z,100205.66
2023-01-26T04:14:12.467Z,100204.56
2023-01-26T04:16:39.021Z,100200.91
2023-01-26T04:19:05.540Z,100197.78
2023-01-26T04:21:32.214Z,100195.03
2023-01-26T04:23:59.898Z,100204.66
2023-01-26T04:26:31.771Z,100203.25
2023-01-26T04:28:58.283Z,100191.66
2023-01-26T04:31:24.864Z,100197.19
2023-01-26T04:33:51.356Z,100196.25
2023-01-26T04:36:17.967Z,100198.28
2023-01-26T04:38:44.481Z,100196.81
2023-01-26T04:41:10.947Z,100193.66
2023-01-26T04:43:37.607Z,100199.75
2023-01-26T04:46:07.397Z,100195.81
2023-01-26T04:48:34.673Z,100205.13
2023-01-26T04:51:04.397Z,100194.03
2023-01-26T04:53:32.353Z,100197.59
2023-01-26T04:55:59.257Z,100191.69
2023-01-26T04:58:26.075Z,100197.97
2023-01-26T05:00:57.771Z,100199.81
2023-01-26T05:03:25.398Z,100200.06
2023-01-26T05:05:54.467Z,100188.97
2023-01-26T05:08:22.300Z,100199.25
2023-01-26T05:10:48.866Z,100193.75
2023-01-26T05:13:15.819Z,100183.13
2023-01-26T05:15:42.419Z,100195.03
2023-01-26T05:18:10.542Z,100191.19
2023-01-26T05:20:37.134Z,100182.09
2023-01-26T05:23:03.614Z,100190.00
2023-01-26T05:25:30.311Z,100186.88
2023-01-26T05:27:56.999Z,100189.91
2023-01-26T05:30:23.689Z,100197.41
2023-01-26T05:32:50.178Z,100203.47
2023-01-26T05:35:16.939Z,100193.03
2023-01-26T05:37:44.136Z,100194.66
2023-01-26T05:40:12.280Z,100196.31
2023-01-26T05:42:39.073Z,100182.75
2023-01-26T05:45:06.235Z,100178.34
2023-01-26T05:47:32.710Z,100183.84
2023-01-26T05:49:59.374Z,100182.94
2023-01-26T05:52:25.925Z,100172.56
2023-01-26T05:54:53.172Z,100182.00
2023-01-26T05:57:19.793Z,100191.28
2023-01-26T05:59:46.357Z,100180.91
2023-01-26T06:02:12.978Z,100190.16
2023-01-26T06:04:39.800Z,100186.22
2023-01-26T06:07:06.791Z,100188.88
2023-01-26T06:09:33.391Z,100196.50
2023-01-26T06:12:00.090Z,100187.78
2023-01-26T06:14:26.587Z,100193.94
2023-01-26T06:16:53.176Z,100189.72
2023-01-26T06:19:19.798Z,100192.09
2023-01-26T06:21:46.344Z,100185.13
2023-01-26T06:24:12.875Z,100183.56
2023-01-26T06:26:39.439Z,100181.81
2023-01-26T06:29:06.706Z,100188.34
2023-01-26T06:31:35.844Z,100180.19
2023-01-26T06:34:02.482Z,100183.75
2023-01-26T06:36:28.978Z,100179.34
2023-01-26T06:38:56.921Z,100176.88
2023-01-26T06:41:23.916Z,100184.75
2023-01-26T06:43:50.426Z,100181.81
2023-01-26T06:46:17.835Z,100177.25
2023-01-26T06:48:44.525Z,100160.47
2023-01-26T06:51:19.941Z,100165.41
2023-01-26T06:53:54.625Z,100177.78
2023-01-26T06:56:22.391Z,100162.47
2023-01-26T06:58:49.117Z,100168.44
2023-01-26T07:01:18.533Z,100168.63
2023-01-26T07:03:45.111Z,100176.50
2023-01-26T07:06:11.975Z,100182.66
2023-01-26T07:08:39.405Z,100179.25
2023-01-26T07:11:09.023Z,100184.13
2023-01-26T07:13:35.746Z,100180.91
2023-01-26T07:16:04.450Z,100182.75
2023-01-26T07:18:31.136Z,100176.97
2023-01-26T07:21:06.193Z,100171.53
2023-01-26T07:23:34.821Z,100168.97
2023-01-26T07:26:02.105Z,100170.44
2023-01-26T07:28:28.930Z,100170.56
2023-01-26T07:30:58.160Z,100166.41
2023-01-26T07:33:24.671Z,100168.16
2023-01-26T07:35:55.709Z,100172.56
2023-01-26T07:38:22.835Z,100178.44
2023-01-26T07:40:49.743Z,100183.47
2023-01-26T07:43:16.296Z,100180.53
2023-01-26T07:45:46.980Z,100175.41
2023-01-26T07:48:13.493Z,100175.97
2023-01-26T07:50:40.153Z,100181.66
2023-01-26T07:53:06.776Z,100186.31
2023-01-26T07:55:33.262Z,100191.53
2023-01-26T07:57:59.871Z,100191.91
2023-01-26T08:00:26.568Z,100196.22
2023-01-26T08:02:53.188Z,100198.28
2023-01-26T08:05:19.811Z,100193.88
2023-01-26T08:07:46.822Z,100194.78
2023-01-26T08:10:14.891Z,100191.44
2023-01-26T08:12:41.578Z,100184.81
2023-01-26T08:15:08.550Z,100183.75
2023-01-26T08:17:35.061Z,100175.59
2023-01-26T08:20:01.922Z,100175.81
2023-01-26T08:22:28.396Z,100170.94
2023-01-26T08:24:54.904Z,100173.19
2023-01-26T08:27:21.448Z,100176.09
2023-01-26T08:29:47.958Z,100172.97
2023-01-26T08:32:14.764Z,100180.97
2023-01-26T08:34:41.600Z,100174.19
2023-01-26T08:37:08.098Z,100157.75
2023-01-26T08:39:34.620Z,100154.69
2023-01-26T08:42:01.201Z,100150.09
2023-01-26T08:44:27.688Z,100148.81
2023-01-26T08:46:54.190Z,100152.84
2023-01-26T08:49:20.745Z,100151.34
2023-01-26T08:51:47.308Z,100148.16
2023-01-26T08:54:13.960Z,100136.75
2023-01-26T08:56:40.501Z,100147.44
2023-01-26T08:59:07.707Z,100148.25
2023-01-26T09:01:34.281Z,100136.41
2023-01-26T09:04:00.936Z,100139.13
2023-01-26T09:06:27.802Z,100138.41
2023-01-26T09:08:54.545Z,100130.53
2023-01-26T09:11:21.289Z,100129.03
2023-01-26T09:13:51.620Z,100122.25
2023-01-26T09:16:20.096Z,100128.63
2023-01-26T09:18:50.167Z,100127.81
2023-01-26T09:21:16.873Z,100133.06
2023-01-26T09:23:43.333Z,100124.09
2023-01-26T09:26:10.214Z,100122.09
2023-01-26T09:28:36.889Z,100122.06
2023-01-26T09:31:05.437Z,100118.50
2023-01-26T09:33:33.087Z,100109.97
2023-01-26T09:36:11.112Z,100117.28
2023-01-26T09:38:38.549Z,100120.88
2023-01-26T09:41:11.018Z,100119.34
2023-01-26T09:43:45.818Z,100110.69
2023-01-26T09:46:54.217Z,100108.03
2023-01-26T09:49:58.285Z,100114.00
2023-01-26T09:52:45.148Z,100107.03
2023-01-26T09:55:19.634Z,100098.88
2023-01-26T09:57:53.289Z,100107.66
2023-01-26T10:00:24.666Z,100099.81
2023-01-26T10:03:05.128Z,100109.88
2023-01-26T10:05:44.115Z,100105.56
2023-01-26T10:08:13.060Z,100107.19
2023-01-26T10:10:47.053Z,100105.97
2023-01-26T10:13:16.738Z,100106.19
2023-01-26T10:15:47.635Z,100102.84
2023-01-26T10:18:21.554Z,100104.50
2023-01-26T10:20:54.388Z,100103.28
2023-01-26T10:23:31.101Z,100099.50
2023-01-26T10:26:17.693Z,100079.25
2023-01-26T10:28:46.662Z,100075.13
2023-01-26T10:31:38.182Z,100081.22
2023-01-26T10:34:13.899Z,100075.94
2023-01-26T10:36:44.031Z,100071.63
2023-01-26T10:39:15.406Z,100069.06
2023-01-26T10:41:57.248Z,100066.25
2023-01-26T10:44:36.455Z,100064.00
2023-01-26T10:47:18.046Z,100057.75
2023-01-26T10:49:44.737Z,100063.41
2023-01-26T10:52:19.006Z,100049.41
2023-01-26T10:54:46.531Z,100053.19
2023-01-26T10:57:23.704Z,100052.91
2023-01-26T10:59:55.465Z,100043.44
2023-01-26T11:02:25.489Z,100032.94
2023-01-26T11:05:07.254Z,100039.84
2023-01-26T11:07:38.461Z,100041.78
2023-01-26T11:10:21.650Z,100029.44
2023-01-26T11:12:48.902Z,100033.56
2023-01-26T11:15:21.577Z,100028.22
2023-01-26T11:18:30.141Z,100032.03
2023-01-26T11:21:00.877Z,100025.44
2023-01-26T11:24:09.439Z,100018.03
2023-01-26T11:27:13.875Z,100016.28
2023-01-26T11:29:46.549Z,100003.84
2023-01-26T11:32:26.924Z,100013.31
2023-01-26T11:34:57.068Z,100024.09
2023-01-26T11:37:58.869Z,100014.75
2023-01-26T11:40:34.285Z,100013.00
2023-01-26T11:43:00.709Z,100015.75
2023-01-26T11:45:49.117Z,100016.16
2023-01-26T11:48:34.178Z,100010.63
2023-01-26T11:51:12.854Z,100016.88
2023-01-26T11:54:10.097Z,100013.69
2023-01-26T11:56:50.418Z,100019.72
2023-01-26T11:59:30.013Z,100020.34
2023-01-26T12:02:07.163Z,100021.59
2023-01-26T12:04:41.206Z,100018.28
2023-01-26T12:07:28.189Z,100022.50
2023-01-26T12:09:55.585Z,100012.53
2023-01-26T12:12:43.764Z,100025.22
2023-01-26T12:15:21.919Z,100032.34
2023-01-26T12:18:10.437Z,100023.56
2023-01-26T12:20:41.853Z,100030.97
2023-01-26T12:23:08.337Z,100028.00
2023-01-26T12:25:36.525Z,100025.84
2023-01-26T12:28:06.460Z,100013.72
2023-01-26T12:31:01.039Z,100016.41
2023-01-26T12:33:28.118Z,100004.22
2023-01-26T12:36:08.355Z,100011.03
2023-01-26T12:38:53.614Z,100019.69
2023-01-26T12:41:43.609Z,100019.78
2023-01-26T12:44:40.449Z,100014.75
2023-01-26T12:47:45.115Z,100012.00
2023-01-26T12:50:29.498Z,100000.19
2023-01-26T12:53:06.527Z,100009.41
2023-01-26T12:55:42.813Z,99997.69
2023-01-26T12:58:23.399Z,100004.09
2023-01-26T13:00:55.095Z,100000.06
2023-01-26T13:03:26.889Z,100014.75
2023-01-26T13:06:02.271Z,100005.53
2023-01-26T13:08:32.051Z,99997.03
2023-01-26T13:11:09.411Z,99995.59
2023-01-26T13:13:56.402Z,99999.66
2023-01-26T13:16:23.604Z,99989.97
2023-01-26T13:18:52.528Z,99998.91
2023-01-26T13:21:37.927Z,99996.72
2023-01-26T13:24:24.445Z,100001.13
2023-01-26T13:26:56.442Z,99993.44
2023-01-26T13:29:22.893Z,99999.88
2023-01-26T13:31:49.517Z,99996.09
2023-01-26T13:34:19.822Z,100001.53
2023-01-26T13:36:49.055Z,99995.31
2023-01-26T13:39:29.945Z,99986.63
2023-01-26T13:41:56.901Z,99991.13
2023-01-26T13:44:40.388Z,99983.78
2023-01-26T13:47:16.655Z,99988.03
2023-01-26T13:49:43.435Z,99980.22
2023-01-26T13:52:25.191Z,99986.16
2023-01-26T13:54:54.235Z,99982.78
2023-01-26T13:57:26.841Z,99978.94
2023-01-26T13:59:59.120Z,99977.75
2023-01-26T14:02:29.206Z,99980.03
2023-01-26T14:04:56.391Z,99976.84
2023-01-26T14:07:28.398Z,99982.88
2023-01-26T14:09:57.169Z,99989.75
2023-01-26T14:12:27.910Z,99987.09
2023-01-26T14:14:57.549Z,99984.44
2023-01-26T14:17:35.826Z,99992.22
2023-01-26T14:20:16.963Z,99991.28
2023-01-26T14:22:43.476Z,99988.19
2023-01-26T14:25:10.952Z,99990.94
2023-01-26T14:27:40.967Z,99980.47
2023-01-26T14:30:22.959Z,99981.88
2023-01-26T14:32:55.423Z,99974.34
2023-01-26T14:35:23.311Z,99982.63
2023-01-26T14:37:50.904Z,99985.38
2023-01-26T14:40:25.073Z,99976.38
2023-01-26T14:42:53.486Z,99999.47
2023-01-26T14:45:28.532Z,99978.84
2023-01-26T14:47:55.869Z,99981.13
2023-01-26T14:50:30.393Z,99973.63
2023-01-26T14:52:57.255Z,99963.75
2023-01-26T14:55:33.437Z,99968.94
2023-01-26T14:58:03.404Z,99971.53
2023-01-26T15:00:37.580Z,99977.47
2023-01-26T15:03:11.948Z,99988.94
2023-01-26T15:05:39.987Z,99989.22
2023-01-26T15:08:24.816Z,99983.16
2023-01-26T15:11:00.426Z,99985.38
2023-01-26T15:13:31.059Z,99981.06
2023-01-26T15:16:16.372Z,99977.13
2023-01-26T15:18:43.290Z,99978.13
2023-01-26T15:21:20.458Z,99990.13
2023-01-26T15:23:52.555Z,99987.91
2023-01-26T15:26:27.967Z,99976.38
2023-01-26T15:28:57.077Z,99988.75
2023-01-26T15:31:30.908Z,99972.59
2023-01-26T15:33:57.818Z,99986.00
2023-01-26T15:36:26.099Z,99987.72
2023-01-26T15:39:13.529Z,99975.28
2023-01-26T15:42:05.269Z,99987.94
2023-01-26T15:44:32.040Z,99987.09
2023-01-26T15:46:58.542Z,99983.34
2023-01-26T15:49:25.086Z,99978.03
2023-01-26T15:51:53.943Z,99963.38
2023-01-26T15:54:20.778Z,99983.16
2023-01-26T15:56:47.337Z,99986.84
2023-01-26T15:59:13.878Z,99974.38
2023-01-26T16:01:40.552Z,99978.41
2023-01-26T16:04:12.500Z,99980.03
2023-01-26T16:06:39.435Z,99972.16
2023-01-26T16:09:06.163Z,99958.78
2023-01-26T16:11:37.317Z,99962.47
2023-01-26T16:14:04.556Z,99965.56
2023-01-26T16:16:32.255Z,99962.72
2023-01-26T16:18:59.011Z,99958.03
2023-01-26T16:21:29.682Z,99955.28
2023-01-26T16:23:56.284Z,99952.91
2023-01-26T16:26:23.063Z,99964.47
2023-01-26T16:28:49.650Z,99957.69
2023-01-26T16:31:26.209Z,99969.59
2023-01-26T16:33:52.885Z,99958.03
2023-01-26T16:36:20.698Z,99956.94
2023-01-26T16:38:48.087Z,99956.28
2023-01-26T16:41:31.021Z,99954.47
2023-01-26T16:44:02.506Z,99962.06
2023-01-26T16:46:30.310Z,99966.00
2023-01-26T16:48:57.131Z,99968.28
2023-01-26T16:51:29.789Z,99996.22
2023-01-26T16:53:56.835Z,99960.53
2023-01-26T16:56:25.107Z,99968.75
2023-01-26T16:58:51.968Z,99971.88
2023-01-26T17:01:32.824Z,99974.88
2023-01-26T17:03:59.332Z,99982.75
2023-01-26T17:06:26.275Z,99978.19
2023-01-26T17:08:53.791Z,99977.81
2023-01-26T17:11:27.750Z,99973.69
2023-01-26T17:13:55.905Z,99976.53
2023-01-26T17:16:28.153Z,99968.81
2023-01-26T17:18:55.359Z,99971.59
2023-01-26T17:21:22.304Z,99983.22
2023-01-26T17:23:54.031Z,99982.97
2023-01-26T17:26:21.697Z,99985.00
2023-01-26T17:28:50.090Z,99982.59
2023-01-26T17:31:18.812Z,99988.09
2023-01-26T17:33:46.814Z,99984.63
2023-01-26T17:36:14.267Z,99987.81
2023-01-26T17:38:40.811Z,99982.88
2023-01-26T17:41:08.238Z,99981.50
2023-01-26T17:43:34.882Z,99995.34
2023-01-26T17:46:12.505Z,99985.91
2023-01-26T17:48:39.324Z,99994.06
2023-01-26T17:51:07.823Z,99990.94
2023-01-26T17:53:40.119Z,99993.59
2023-01-26T17:56:08.677Z,99995.25
2023-01-26T17:58:36.147Z,99991.78
2023-01-26T18:01:03.595Z,99986.38
2023-01-26T18:03:30.281Z,99988.84
2023-01-26T18:05:57.369Z,99986.00
2023-01-26T18:08:25.240Z,99995.25
2023-01-26T18:11:01.943Z,99991.22
2023-01-26T18:13:30.275Z,99999.47
2023-01-26T18:15:56.897Z,99996.72
2023-01-26T18:18:28.932Z,99996.31
2023-01-26T18:20:55.964Z,99999.53
2023-01-26T18:23:23.745Z,99989.56
2023-01-26T18:25:50.889Z,99987.53
2023-01-26T18:28:17.462Z,99985.03
2023-01-26T18:30:43.929Z,99970.59
2023-01-26T18:33:10.845Z,99979.31
2023-01-26T18:35:37.925Z,99989.03
2023-01-26T18:38:04.492Z,99976.84
2023-01-26T18:40:31.082Z,99981.78
2023-01-26T18:42:58.801Z,99980.56
2023-01-26T18:45:25.300Z,99979.75
2023-01-26T18:47:51.877Z,99975.72
2023-01-26T18:50:18.556Z,99976.84
2023-01-26T18:52:45.167Z,99987.19
2023-01-26T18:55:12.274Z,99982.22
2023-01-26T18:57:39.214Z,99981.31
2023-01-26T19:00:07.659Z,99978.38
2023-01-26T19:02:34.602Z,99977.28
2023-01-26T19:05:01.142Z,99981.31
2023-01-26T19:07:28.530Z,99978.38
2023-01-26T19:09:55.032Z,99971.72
2023-01-26T19:12:21.583Z,99958.84
2023-01-26T19:14:48.168Z,99961.34
2023-01-26T19:17:14.728Z,99967.75
2023-01-26T19:19:41.293Z,99964.81
2023-01-26T19:22:07.858Z,99965.38
2023-01-26T19:24:34.429Z,99963.34
2023-01-26T19:27:01.134Z,99966.13
2023-01-26T19:29:27.649Z,99963.56
2023-01-26T19:31:54.310Z,99966.13
2023-01-26T19:34:20.892Z,99963.84
2023-01-26T19:36:47.573Z,99966.50
2023-01-26T19:39:14.163Z,99973.09
2023-01-26T19:41:41.061Z,99967.75
2023-01-26T19:44:07.616Z,99951.81
2023-01-26T19:46:34.191Z,99958.69
2023-01-26T19:49:00.947Z,99957.25
2023-01-26T19:51:27.884Z,99962.19
2023-01-26T19:53:57.453Z,99957.78
2023-01-26T19:56:30.132Z,99955.69
2023-01-26T19:58:58.921Z,99948.38
2023-01-26T20:01:27.305Z,99947.72
2023-01-26T20:03:59.198Z,99941.78
2023-01-26T20:06:28.246Z,99948.38
2023-01-26T20:08:55.942Z,99952.22
2023-01-26T20:11:23.981Z,99951.22
2023-01-26T20:14:01.252Z,99945.84
2023-01-26T20:16:28.880Z,99946.47
2023-01-26T20:18:57.123Z,99948.59
2023-01-26T20:21:24.028Z,99933.84
2023-01-26T20:23:54.881Z,99947.41
2023-01-26T20:26:22.510Z,99945.66
2023-01-26T20:28:49.111Z,99950.56
2023-01-26T20:31:19.158Z,99953.69
2023-01-26T20:33:47.656Z,99948.19
2023-01-26T20:36:17.221Z,99950.56
2023-01-26T20:38:47.128Z,99946.69
2023-01-26T20:41:16.888Z,99956.44
2023-01-26T20:43:58.260Z,99950.56
2023-01-26T20:46:28.118Z,99946.72
2023-01-26T20:48:55.474Z,99936.44
2023-01-26T20:51:26.430Z,99940.66
2023-01-26T20:53:52.994Z,99939.41
2023-01-26T20:56:21.452Z,99941.78
2023-01-26T20:58:48.244Z,99939.06
2023-01-26T21:01:16.955Z,99942.19
2023-01-26T21:03:44.290Z,99939.94
2023-01-26T21:06:13.495Z,99938.88
2023-01-26T21:08:41.032Z,99944.19
2023-01-26T21:11:10.482Z,99930.63
2023-01-26T21:13:38.047Z,99944.00
2023-01-26T21:16:05.300Z,99936.81
2023-01-26T21:18:31.861Z,99938.28
2023-01-26T21:21:01.468Z,99944.63
2023-01-26T21:23:28.074Z,99945.84
2023-01-26T21:26:02.771Z,99936.47
2023-01-26T21:28:30.115Z,99946.72
2023-01-26T21:31:05.201Z,99942.31
2023-01-26T21:33:33.749Z,99950.19
2023-01-26T21:36:02.400Z,99942.50
2023-01-26T21:38:35.584Z,99935.34
2023-01-26T21:41:08.076Z,99931.16
2023-01-26T21:43:34.641Z,99932.97
2023-01-26T21:46:01.229Z,99923.44
2023-01-26T21:48:27.820Z,99924.94
2023-01-26T21:50:56.118Z,99925.38
2023-01-26T21:53:22.722Z,99929.50
2023-01-26T21:55:49.264Z,99931.03
2023-01-26T21:58:15.768Z,99927.63
2023-01-26T22:00:42.316Z,99917.75
2023-01-26T22:03:08.922Z,99913.47
2023-01-26T22:05:35.655Z,99917.59
2023-01-26T22:08:02.292Z,99908.41
2023-01-26T22:10:28.882Z,99902.97
2023-01-26T22:12:55.394Z,99910.13
2023-01-26T22:15:21.971Z,99904.50
2023-01-26T22:17:48.495Z,99911.00
2023-01-26T22:20:15.240Z,99904.88
2023-01-26T22:22:41.874Z,99903.84
2023-01-26T22:25:08.881Z,99906.03
2023-01-26T22:27:38.917Z,99904.22
2023-01-26T22:30:05.925Z,99896.16
2023-01-26T22:32:32.528Z,99895.06
2023-01-26T22:34:59.057Z,99894.66
2023-01-26T22:37:25.520Z,99901.38
2023-01-26T22:39:52.363Z,99894.59
2023-01-26T22:42:18.891Z,99891.94
2023-01-26T22:44:45.361Z,99888.81
2023-01-26T22:47:11.937Z,99884.22
2023-01-26T22:49:38.422Z,99887.81
2023-01-26T22:52:05.008Z,99884.50
2023-01-26T22:54:32.332Z,99880.53
2023-01-26T22:56:58.799Z,99881.28
2023-01-26T22:59:25.394Z,99887.94
2023-01-26T23:01:52.348Z,99892.59
2023-01-26T23:04:18.889Z,99893.53
2023-01-26T23:06:45.874Z,99888.19
2023-01-26T23:09:12.492Z,99892.25
2023-01-26T23:11:39.092Z,99877.50
2023-01-26T23:14:05.636Z,99893.91
2023-01-26T23:16:32.161Z,99890.22
2023-01-26T23:18:59.327Z,99900.50
2023-01-26T23:21:28.842Z,99899.81
2023-01-26T23:23:55.807Z,99901.06
2023-01-26T23:26:22.840Z,99900.97
2023-01-26T23:28:49.448Z,99901.75
2023-01-26T23:31:18.308Z,99898.38
2023-01-26T23:33:45.846Z,99928.25
2023-01-26T23:36:14.029Z,99896.00
2023-01-26T23:38:41.060Z,99896.00
2023-01-26T23:41:07.942Z,99895.38
2023-01-26T23:43:34.567Z,99901.41
2023-01-26T23:46:01.175Z,99910.13
2023-01-26T23:48:27.675Z,99908.09
2023-01-26T23:51:02.443Z,99895.91
2023-01-26T23:53:29.220Z,99894.59
2023-01-26T23:55:55.894Z,99889.28
2023-01-26T23:58:23.260Z,99891.06
